CZFM/ZFM METAR and TAF weather

Enter ICAO airport designator
Station Type Date Time Source
CZFM METAR 2020/04/05 19:00 UTC NOAA

CZFM 051900Z 15008G15KT 35SM FEW120 SCT240 M05/M11 A2947 RMK AC3CI1 S0.0 AFT14UTC 49.0/SNWCVR/MUCH LOOSE LAST STFD OBS/NXT 061300Z SLP983


Station Type Date Time Source
CZFM Decoded METAR 2020/04/05 19:00 UTC NOAA

Fort Mcpherson Airport, Canada (CZFM) 67-24N 134-51W
Apr 05, 2020 - 03:00 PM EDT / 2020.04.05 1900 UTC
Wind: from the SSE (150 degrees) at 9 MPH (8 KT) gusting to 17 MPH (15 KT):0
Visibility: 35 mile(s):0
Sky conditions: partly cloudy
Temperature: 23 F (-5 C)
Windchill: 14 F (-10 C):1
Dew Point: 12 F (-11 C)
Relative Humidity: 62%
Pressure (altimeter): 29.47 in. Hg (997 hPa)
ob: CZFM 051900Z 15008G15KT 35SM FEW120 SCT240 M05/M11 A2947 RMK AC3CI1 S0.0 AFT14UTC 49.0/SNWCVR/MUCH LOOSE LAST STFD OBS/NXT 061300Z SLP983
cycle: 19

Station Type Date Time Source
CZFM TAF 2020/04/05 16:00 UTC NOAA

TAF CZFM 051538Z 0516/0519 15008KT P6SM SCT030 BKN060
TEMPO 0516/0519 P6SM -SN OVC030
RMK NXT FCST WILL BE ISSUED AT 061445Z

Example: see airport list